createdAt,value
2019-05-22T00:01:00.220Z,28.32
2019-05-22T00:04:27.277Z,29.20
2019-05-22T00:07:30.859Z,28.65
2019-05-22T00:10:33.919Z,28.90
2019-05-22T00:13:41.833Z,28.10
2019-05-22T00:16:45.032Z,27.85
2019-05-22T00:19:47.970Z,29.92
2019-05-22T00:22:51.059Z,28.10
2019-05-22T00:25:54.488Z,28.20
2019-05-22T00:28:56.870Z,28.50
2019-05-22T00:31:58.734Z,28.60
2019-05-22T00:35:00.552Z,27.62
2019-05-22T00:38:03.002Z,26.45
2019-05-22T00:41:10.406Z,28.27
2019-05-22T00:44:14.106Z,25.97
2019-05-22T00:47:17.810Z,27.20
2019-05-22T00:50:24.902Z,27.15
2019-05-22T00:53:49.416Z,26.48
2019-05-22T00:57:08.780Z,27.05
2019-05-22T01:00:34.858Z,26.12
2019-05-22T01:03:36.936Z,26.07
2019-05-22T01:06:38.838Z,24.23
2019-05-22T01:09:42.259Z,25.30
2019-05-22T01:12:46.978Z,26.33
2019-05-22T01:15:50.756Z,26.10
2019-05-22T01:18:53.721Z,28.25
2019-05-22T01:21:56.384Z,27.58
2019-05-22T01:25:00.179Z,27.85
2019-05-22T01:28:04.152Z,29.85
2019-05-22T01:31:24.447Z,27.93
2019-05-22T01:34:30.043Z,25.52
2019-05-22T01:37:32.440Z,27.13
2019-05-22T01:40:42.793Z,26.65
2019-05-22T01:43:46.257Z,28.00
2019-05-22T01:46:49.516Z,28.10
2019-05-22T01:49:54.073Z,27.20
2019-05-22T01:52:56.023Z,27.65
2019-05-22T01:55:59.282Z,28.05
2019-05-22T01:59:02.264Z,28.42
2019-05-22T02:02:04.340Z,29.07
2019-05-22T02:05:08.243Z,29.15
2019-05-22T02:08:10.341Z,28.57
2019-05-22T02:11:16.276Z,28.38
2019-05-22T02:14:18.720Z,30.45
2019-05-22T02:17:27.015Z,30.32
2019-05-22T02:20:29.632Z,28.12
2019-05-22T02:23:32.473Z,29.48
2019-05-22T02:26:34.303Z,28.25
2019-05-22T02:29:35.751Z,29.82
2019-05-22T02:32:38.972Z,28.30
2019-05-22T02:35:40.784Z,29.80
2019-05-22T02:38:42.101Z,27.65
2019-05-22T02:41:48.367Z,28.95
2019-05-22T02:44:50.300Z,28.92
2019-05-22T02:47:53.123Z,29.52
2019-05-22T02:50:54.854Z,28.30
2019-05-22T02:53:59.213Z,28.60
2019-05-22T02:57:01.349Z,27.80
2019-05-22T03:00:03.092Z,26.42
2019-05-22T03:03:08.015Z,25.45
2019-05-22T03:06:13.310Z,25.97
2019-05-22T03:09:22.680Z,24.90
2019-05-22T03:12:24.313Z,26.40
2019-05-22T03:15:28.234Z,25.97
2019-05-22T03:18:30.339Z,27.07
2019-05-22T03:21:31.972Z,26.35
2019-05-22T03:24:35.029Z,26.30
2019-05-22T03:27:44.076Z,24.87
2019-05-22T03:30:47.181Z,24.57
2019-05-22T03:33:49.883Z,25.30
2019-05-22T03:36:52.404Z,24.87
2019-05-22T03:39:53.709Z,26.60
2019-05-22T03:42:55.433Z,27.13
2019-05-22T03:45:59.628Z,25.62
2019-05-22T03:49:01.359Z,24.80
2019-05-22T03:52:03.698Z,26.97
2019-05-22T03:55:07.540Z,26.57
2019-05-22T03:58:09.447Z,28.45
2019-05-22T04:01:11.379Z,27.45
2019-05-22T04:04:33.999Z,28.15
2019-05-22T04:07:35.562Z,24.35
2019-05-22T04:10:54.784Z,24.67
2019-05-22T04:13:57.110Z,25.10
2019-05-22T04:16:59.417Z,24.90
2019-05-22T04:20:02.175Z,22.32
2019-05-22T04:23:04.196Z,24.40
2019-05-22T04:26:11.556Z,25.62
2019-05-22T04:29:14.315Z,24.27
2019-05-22T04:32:27.561Z,23.73
2019-05-22T04:35:29.077Z,23.77
2019-05-22T04:38:30.785Z,25.77
2019-05-22T04:41:32.723Z,25.32
2019-05-22T04:44:34.049Z,24.15
2019-05-22T04:47:37.555Z,24.67
2019-05-22T04:50:39.094Z,25.37
2019-05-22T04:53:40.445Z,25.45
2019-05-22T04:56:42.161Z,27.13
2019-05-22T04:59:43.616Z,27.07
2019-05-22T05:02:44.959Z,27.30
2019-05-22T05:05:49.928Z,27.58
2019-05-22T05:08:52.259Z,26.90
2019-05-22T05:11:53.662Z,28.62
2019-05-22T05:14:56.204Z,27.20
2019-05-22T05:17:57.528Z,25.85
2019-05-22T05:20:58.934Z,25.90
2019-05-22T05:24:01.517Z,22.52
2019-05-22T05:27:03.008Z,21.90
2019-05-22T05:30:04.540Z,25.05
2019-05-22T05:33:06.665Z,27.17
2019-05-22T05:36:09.070Z,26.33
2019-05-22T05:40:04.566Z,28.55
2019-05-22T05:43:09.173Z,26.77
2019-05-22T05:46:10.507Z,25.17
2019-05-22T05:49:12.180Z,24.72
2019-05-22T05:52:13.625Z,23.62
2019-05-22T05:55:15.733Z,20.00
2019-05-22T05:58:29.805Z,16.48
2019-05-22T06:01:35.221Z,15.05
2019-05-22T06:04:39.510Z,12.40
2019-05-22T06:07:41.216Z,13.22
2019-05-22T06:11:50.470Z,15.43
2019-05-22T06:14:52.697Z,15.10
2019-05-22T06:18:37.425Z,14.20
2019-05-22T06:21:44.206Z,13.13
2019-05-22T06:25:05.073Z,12.07
2019-05-22T06:28:06.939Z,11.50
2019-05-22T06:31:10.524Z,12.13
2019-05-22T06:34:12.701Z,11.40
2019-05-22T06:37:32.465Z,13.13
2019-05-22T06:40:34.295Z,11.80
2019-05-22T06:44:31.065Z,11.75
2019-05-22T06:47:32.491Z,11.33
2019-05-22T06:50:33.876Z,12.60
2019-05-22T06:53:35.214Z,12.73
2019-05-22T06:56:36.540Z,12.70
2019-05-22T06:59:38.460Z,13.25
2019-05-22T07:02:39.749Z,12.43
2019-05-22T07:05:41.752Z,12.15
2019-05-22T07:08:43.276Z,11.93
2019-05-22T07:11:45.314Z,12.47
2019-05-22T07:15:45.412Z,12.40
2019-05-22T07:18:47.190Z,12.43
2019-05-22T07:21:48.680Z,12.03
2019-05-22T07:24:50.120Z,11.10
2019-05-22T07:27:51.651Z,11.83
2019-05-22T07:30:53.696Z,11.57
2019-05-22T07:33:55.540Z,11.85
2019-05-22T07:36:56.987Z,10.95
2019-05-22T07:39:58.417Z,10.98
2019-05-22T07:42:59.787Z,11.35
2019-05-22T07:46:01.335Z,9.95
2019-05-22T07:49:02.765Z,9.35
2019-05-22T07:52:06.376Z,9.93
2019-05-22T07:55:07.880Z,10.75
2019-05-22T07:58:16.159Z,10.40
2019-05-22T08:01:18.206Z,9.05
2019-05-22T08:04:21.515Z,9.38
2019-05-22T08:07:24.781Z,9.85
2019-05-22T08:10:26.867Z,8.70
2019-05-22T08:13:29.172Z,7.65
2019-05-22T08:16:30.706Z,7.83
2019-05-22T08:19:33.712Z,8.55
2019-05-22T08:22:36.217Z,8.08
2019-05-22T08:25:38.260Z,10.25
2019-05-22T08:28:41.130Z,9.85
2019-05-22T08:31:42.726Z,8.98
2019-05-22T08:34:44.339Z,8.83
2019-05-22T08:37:49.033Z,7.35
2019-05-22T08:40:52.752Z,6.15
2019-05-22T08:44:14.401Z,5.40
2019-05-22T08:46:58.382Z,7.00
2019-05-22T08:50:00.103Z,5.70
2019-05-22T08:53:02.191Z,5.00
2019-05-22T08:56:04.293Z,4.83
2019-05-22T08:59:18.894Z,6.45
2019-05-22T09:02:09.301Z,5.90
2019-05-22T09:05:12.075Z,5.42
2019-05-22T09:08:13.636Z,5.75
2019-05-22T09:11:15.247Z,3.87
2019-05-22T09:14:16.873Z,3.37
2019-05-22T09:17:20.364Z,3.50
2019-05-22T09:20:23.986Z,3.80
2019-05-22T09:23:26.448Z,3.98
2019-05-22T09:26:28.937Z,3.72
2019-05-22T09:29:30.655Z,3.70
2019-05-22T09:32:32.214Z,3.90
2019-05-22T09:35:34.009Z,4.33
2019-05-22T09:38:35.762Z,5.58
2019-05-22T09:41:37.716Z,4.83
2019-05-22T09:44:39.495Z,4.65
2019-05-22T09:47:44.464Z,4.55
2019-05-22T09:50:46.162Z,4.72
2019-05-22T09:53:47.948Z,5.00
2019-05-22T09:56:49.550Z,4.83
2019-05-22T09:59:51.337Z,4.17
2019-05-22T10:02:52.975Z,5.58
2019-05-22T10:05:56.007Z,4.22
2019-05-22T10:08:57.613Z,3.67
2019-05-22T10:11:59.504Z,3.70
2019-05-22T10:15:01.469Z,3.65
2019-05-22T10:18:04.297Z,3.67
2019-05-22T10:21:06.865Z,3.87
2019-05-22T10:24:09.099Z,3.60
2019-05-22T10:27:13.463Z,3.33
2019-05-22T10:30:18.452Z,3.92
2019-05-22T10:33:20.021Z,3.95
2019-05-22T10:36:22.820Z,4.55
2019-05-22T10:39:24.997Z,4.05
2019-05-22T10:42:26.796Z,4.10
2019-05-22T10:45:28.704Z,4.30
2019-05-22T10:48:31.385Z,4.25
2019-05-22T10:51:32.918Z,4.75
2019-05-22T10:54:34.493Z,4.53
2019-05-22T10:57:40.416Z,4.20
2019-05-22T11:00:39.685Z,3.80
2019-05-22T11:03:41.668Z,4.15
2019-05-22T11:06:43.285Z,3.80
2019-05-22T11:09:45.441Z,3.83
2019-05-22T11:12:47.243Z,3.80
2019-05-22T11:15:49.055Z,4.22
2019-05-22T11:18:51.432Z,3.98
2019-05-22T11:21:56.652Z,3.77
2019-05-22T11:24:56.211Z,4.03
2019-05-22T11:27:57.740Z,4.03
2019-05-22T11:31:00.024Z,3.62
2019-05-22T11:34:01.576Z,3.98
2019-05-22T11:37:03.222Z,3.87
2019-05-22T11:40:05.778Z,3.25
2019-05-22T11:43:07.571Z,3.67
2019-05-22T11:46:09.775Z,3.15
2019-05-22T11:49:12.380Z,3.70
2019-05-22T11:52:15.451Z,3.72
2019-05-22T11:55:17.520Z,3.27
2019-05-22T11:58:19.036Z,3.25
2019-05-22T12:01:20.561Z,4.17
2019-05-22T12:04:22.562Z,3.30
2019-05-22T12:07:24.604Z,3.75
2019-05-22T12:10:26.632Z,3.65
2019-05-22T12:13:28.628Z,3.25
2019-05-22T12:16:30.737Z,3.50
2019-05-22T12:19:32.309Z,2.85
2019-05-22T12:22:34.574Z,2.85
2019-05-22T12:25:36.249Z,3.80
2019-05-22T12:28:39.152Z,3.37
2019-05-22T12:31:40.631Z,3.17
2019-05-22T12:34:42.578Z,2.87
2019-05-22T12:37:44.511Z,3.87
2019-05-22T12:40:46.799Z,2.90
2019-05-22T12:43:49.075Z,3.72
2019-05-22T12:46:51.713Z,3.52
2019-05-22T12:49:54.098Z,3.15
2019-05-22T12:52:56.958Z,2.87
2019-05-22T12:55:59.974Z,3.37
2019-05-22T12:59:02.038Z,3.47
2019-05-22T13:02:05.499Z,3.50
2019-05-22T13:05:08.716Z,2.90
2019-05-22T13:08:12.600Z,3.40
2019-05-22T13:11:15.335Z,3.15
2019-05-22T13:14:17.517Z,3.33
2019-05-22T13:17:19.945Z,3.50
2019-05-22T13:20:41.351Z,3.05
2019-05-22T13:23:34.319Z,3.27
2019-05-22T13:26:39.210Z,3.25
2019-05-22T13:29:41.460Z,3.55
2019-05-22T13:32:45.360Z,3.60
2019-05-22T13:35:48.012Z,3.60
2019-05-22T13:38:50.230Z,3.50
2019-05-22T13:41:52.212Z,3.77
2019-05-22T13:44:54.703Z,3.02
2019-05-22T13:47:56.644Z,2.95
2019-05-22T13:51:00.098Z,3.37
2019-05-22T13:54:02.051Z,3.50
2019-05-22T13:57:06.188Z,3.90
2019-05-22T14:00:09.458Z,2.95
2019-05-22T14:03:11.979Z,3.20
2019-05-22T14:06:15.245Z,3.15
2019-05-22T14:09:21.359Z,3.37
2019-05-22T14:12:22.023Z,3.52
2019-05-22T14:15:23.774Z,2.77
2019-05-22T14:18:25.459Z,3.35
2019-05-22T14:21:27.250Z,3.40
2019-05-22T14:24:28.731Z,3.10
2019-05-22T14:27:30.354Z,2.80
2019-05-22T14:30:32.734Z,3.25
2019-05-22T14:33:34.354Z,3.20
2019-05-22T14:36:36.972Z,2.92
2019-05-22T14:39:39.767Z,2.83
2019-05-22T14:42:41.539Z,2.98
2019-05-22T14:45:44.815Z,2.67
2019-05-22T14:48:46.405Z,3.08
2019-05-22T14:51:48.087Z,3.02
2019-05-22T14:54:50.783Z,2.92
2019-05-22T14:57:52.527Z,2.87
2019-05-22T15:00:55.375Z,3.05
2019-05-22T15:03:57.509Z,2.50
2019-05-22T15:06:59.180Z,2.80
2019-05-22T15:10:00.823Z,3.12
2019-05-22T15:13:03.685Z,2.62
2019-05-22T15:16:05.128Z,2.75
2019-05-22T15:19:07.518Z,2.98
2019-05-22T15:22:09.674Z,2.30
2019-05-22T15:25:11.622Z,2.30
2019-05-22T15:28:14.198Z,3.00
2019-05-22T15:31:16.195Z,2.70
2019-05-22T15:34:17.920Z,2.52
2019-05-22T15:37:21.343Z,2.72
2019-05-22T15:40:25.291Z,2.62
2019-05-22T15:43:28.136Z,2.25
2019-05-22T15:46:31.076Z,2.10
2019-05-22T15:49:32.931Z,2.25
2019-05-22T15:52:36.994Z,2.10
2019-05-22T15:55:41.418Z,2.00
2019-05-22T15:58:49.892Z,1.85
2019-05-22T16:01:51.684Z,1.80
2019-05-22T16:04:53.422Z,1.75
2019-05-22T16:07:55.428Z,1.77
2019-05-22T16:11:00.741Z,1.98
2019-05-22T16:14:03.404Z,2.00
2019-05-22T16:17:07.115Z,1.87
2019-05-22T16:20:09.654Z,2.00
2019-05-22T16:23:12.039Z,2.12
2019-05-22T16:26:13.897Z,2.10
2019-05-22T16:29:15.958Z,1.98
2019-05-22T16:32:21.631Z,2.10
2019-05-22T16:35:23.704Z,1.75
2019-05-22T16:38:26.463Z,2.00
2019-05-22T16:41:28.145Z,1.92
2019-05-22T16:44:29.697Z,2.08
2019-05-22T16:47:33.527Z,1.87
2019-05-22T16:50:35.024Z,1.87
2019-05-22T16:53:37.409Z,1.80
2019-05-22T16:56:40.548Z,2.15
2019-05-22T16:59:42.814Z,2.10
2019-05-22T17:02:45.767Z,2.00
2019-05-22T17:05:47.670Z,1.92
2019-05-22T17:08:50.295Z,2.30
2019-05-22T17:11:52.580Z,1.70
2019-05-22T17:14:55.657Z,2.00
2019-05-22T17:17:57.322Z,1.90
2019-05-22T17:21:00.792Z,2.12
2019-05-22T17:24:04.730Z,1.80
2019-05-22T17:27:08.201Z,1.87
2019-05-22T17:30:12.020Z,2.10
2019-05-22T17:33:13.931Z,1.60
2019-05-22T17:36:16.417Z,2.00
2019-05-22T17:39:18.376Z,1.75
2019-05-22T17:42:23.509Z,2.10
2019-05-22T17:45:28.946Z,1.82
2019-05-22T17:48:30.911Z,1.90
2019-05-22T17:51:33.399Z,2.08
2019-05-22T17:54:35.985Z,1.67
2019-05-22T17:57:38.048Z,1.98
2019-05-22T18:00:42.852Z,1.85
2019-05-22T18:03:44.436Z,1.90
2019-05-22T18:06:45.995Z,2.08
2019-05-22T18:09:47.521Z,1.82
2019-05-22T18:12:49.108Z,2.25
2019-05-22T18:15:50.975Z,2.10
2019-05-22T18:18:52.929Z,2.33
2019-05-22T18:21:54.558Z,1.80
2019-05-22T18:24:56.147Z,2.17
2019-05-22T18:27:58.263Z,1.80
2019-05-22T18:30:59.857Z,2.27
2019-05-22T18:34:01.403Z,2.20
2019-05-22T18:37:02.960Z,2.20
2019-05-22T18:40:04.859Z,2.33
2019-05-22T18:43:06.408Z,2.37
2019-05-22T18:46:14.873Z,2.05
2019-05-22T18:49:16.385Z,2.45
2019-05-22T18:52:18.609Z,2.25
2019-05-22T18:55:20.193Z,2.20
2019-05-22T18:58:21.725Z,2.30
2019-05-22T19:01:23.524Z,2.37
2019-05-22T19:04:25.109Z,2.40
2019-05-22T19:07:26.742Z,2.20
2019-05-22T19:10:28.658Z,2.27
2019-05-22T19:13:32.402Z,2.60
2019-05-22T19:16:33.907Z,2.42
2019-05-22T19:19:36.896Z,2.60
2019-05-22T19:22:58.042Z,2.80
2019-05-22T19:25:45.299Z,2.52
2019-05-22T19:28:47.235Z,2.60
2019-05-22T19:31:48.861Z,2.65
2019-05-22T19:34:50.367Z,2.72
2019-05-22T19:37:52.654Z,2.60
2019-05-22T19:40:54.440Z,2.47
2019-05-22T19:43:56.057Z,2.40
2019-05-22T19:47:08.341Z,2.40
2019-05-22T19:50:22.946Z,2.45
2019-05-22T19:53:19.116Z,2.72
2019-05-22T19:56:18.751Z,2.52
2019-05-22T19:59:20.720Z,2.40
2019-05-22T20:02:23.061Z,3.00
2019-05-22T20:05:25.561Z,2.62
2019-05-22T20:08:27.510Z,2.47
2019-05-22T20:11:29.934Z,2.80
2019-05-22T20:14:31.961Z,2.55
2019-05-22T20:17:33.940Z,2.50
2019-05-22T20:20:36.329Z,3.15
2019-05-22T20:23:38.013Z,2.50
2019-05-22T20:26:39.660Z,2.80
2019-05-22T20:29:42.196Z,2.45
2019-05-22T20:32:43.827Z,2.55
2019-05-22T20:35:45.623Z,2.77
2019-05-22T20:38:47.223Z,2.90
2019-05-22T20:41:48.823Z,3.02
2019-05-22T20:44:51.252Z,3.27
2019-05-22T20:48:07.854Z,2.60
2019-05-22T20:51:11.929Z,3.10
2019-05-22T20:54:15.260Z,3.42
2019-05-22T20:57:20.072Z,2.87
2019-05-22T21:00:21.949Z,3.52
2019-05-22T21:03:25.826Z,3.00
2019-05-22T21:06:30.070Z,2.62
2019-05-22T21:09:33.801Z,2.75
2019-05-22T21:12:36.376Z,2.58
2019-05-22T21:15:38.614Z,2.50
2019-05-22T21:18:47.056Z,2.67
2019-05-22T21:21:49.264Z,2.87
2019-05-22T21:24:52.840Z,2.40
2019-05-22T21:27:54.848Z,2.67
2019-05-22T21:30:57.695Z,2.80
2019-05-22T21:33:59.568Z,2.83
2019-05-22T21:37:01.386Z,2.58
2019-05-22T21:40:04.079Z,2.80
2019-05-22T21:43:07.128Z,2.75
2019-05-22T21:46:08.671Z,2.87
2019-05-22T21:49:10.898Z,2.80
2019-05-22T21:52:13.155Z,3.15
2019-05-22T21:55:16.144Z,3.25
2019-05-22T21:58:19.501Z,3.20
2019-05-22T22:01:34.653Z,3.05
2019-05-22T22:04:37.957Z,3.22
2019-05-22T22:07:40.479Z,2.80
2019-05-22T22:10:42.580Z,3.60
2019-05-22T22:13:45.341Z,3.22
2019-05-22T22:16:47.841Z,3.10
2019-05-22T22:19:50.222Z,3.10
2019-05-22T22:22:51.968Z,2.90
2019-05-22T22:25:53.620Z,3.47
2019-05-22T22:28:56.059Z,3.30
2019-05-22T22:32:00.562Z,3.40
2019-05-22T22:35:02.177Z,3.50
2019-05-22T22:38:04.354Z,3.42
2019-05-22T22:41:09.377Z,3.27
2019-05-22T22:44:12.355Z,4.10
2019-05-22T22:47:20.112Z,2.95
2019-05-22T22:50:23.186Z,3.37
2019-05-22T22:53:25.541Z,3.65
2019-05-22T22:56:29.168Z,3.13
2019-05-22T22:59:30.796Z,4.08
2019-05-22T23:02:35.270Z,4.30
2019-05-22T23:05:37.153Z,3.77
2019-05-22T23:08:39.780Z,3.60
2019-05-22T23:11:43.483Z,3.77
2019-05-22T23:14:53.948Z,4.65
2019-05-22T23:17:55.887Z,4.25
2019-05-22T23:20:54.947Z,4.60
2019-05-22T23:23:54.023Z,4.72
2019-05-22T23:26:56.116Z,5.03
2019-05-22T23:30:00.077Z,5.35
2019-05-22T23:33:02.633Z,4.87
2019-05-22T23:36:04.140Z,5.17
2019-05-22T23:39:11.093Z,4.95
2019-05-22T23:42:19.220Z,4.60
2019-05-22T23:45:22.540Z,5.10
2019-05-22T23:48:24.315Z,4.72
2019-05-22T23:51:25.951Z,4.40
2019-05-22T23:54:28.652Z,4.83
2019-05-22T23:57:30.193Z,4.65
